sensor_id;sensor_type;location;lat;lon;timestamp;P1;durP1;ratioP1;P2;durP2;ratioP2
16775;SDS011;8505;49.456;8.164;2024-03-08T00:00:12;0.60;;;0.60;;
16775;SDS011;8505;49.456;8.164;2024-03-08T00:02:43;4.53;;;1.93;;
16775;SDS011;8505;49.456;8.164;2024-03-08T00:05:12;5.40;;;2.30;;
16775;SDS011;8505;49.456;8.164;2024-03-08T00:07:42;25.50;;;2.10;;
16775;SDS011;8505;49.456;8.164;2024-03-08T00:10:10;0.90;;;0.80;;
16775;SDS011;8505;49.456;8.164;2024-03-08T00:12:41;0.15;;;0.15;;
16775;SDS011;8505;49.456;8.164;2024-03-08T00:15:10;0.73;;;0.52;;
16775;SDS011;8505;49.456;8.164;2024-03-08T00:17:41;0.50;;;0.50;;
16775;SDS011;8505;49.456;8.164;2024-03-08T00:20:09;0.40;;;0.40;;
16775;SDS011;8505;49.456;8.164;2024-03-08T00:22:37;0.32;;;0.32;;
16775;SDS011;8505;49.456;8.164;2024-03-08T00:25:07;1.23;;;1.15;;
16775;SDS011;8505;49.456;8.164;2024-03-08T00:27:36;10.30;;;4.70;;
16775;SDS011;8505;49.456;8.164;2024-03-08T00:30:05;1.65;;;0.70;;
16775;SDS011;8505;49.456;8.164;2024-03-08T00:32:33;0.25;;;0.25;;
16775;SDS011;8505;49.456;8.164;2024-03-08T00:35:02;3.50;;;1.10;;
16775;SDS011;8505;49.456;8.164;2024-03-08T00:37:34;0.30;;;0.30;;
16775;SDS011;8505;49.456;8.164;2024-03-08T00:40:02;0.35;;;0.35;;
16775;SDS011;8505;49.456;8.164;2024-03-08T00:42:32;1.20;;;1.15;;
16775;SDS011;8505;49.456;8.164;2024-03-08T00:45:00;0.60;;;0.60;;
16775;SDS011;8505;49.456;8.164;2024-03-08T00:47:29;1.90;;;1.30;;
16775;SDS011;8505;49.456;8.164;2024-03-08T00:49:56;0.10;;;0.10;;
16775;SDS011;8505;49.456;8.164;2024-03-08T00:52:24;0.00;;;0.00;;
16775;SDS011;8505;49.456;8.164;2024-03-08T00:54:52;0.80;;;0.80;;
16775;SDS011;8505;49.456;8.164;2024-03-08T00:57:20;0.40;;;0.40;;
16775;SDS011;8505;49.456;8.164;2024-03-08T00:59:50;0.98;;;0.40;;
16775;SDS011;8505;49.456;8.164;2024-03-08T01:02:19;1.87;;;0.77;;
16775;SDS011;8505;49.456;8.164;2024-03-08T01:04:47;0.15;;;0.15;;
16775;SDS011;8505;49.456;8.164;2024-03-08T01:07:15;0.10;;;0.10;;
16775;SDS011;8505;49.456;8.164;2024-03-08T01:09:42;0.20;;;0.20;;
16775;SDS011;8505;49.456;8.164;2024-03-08T01:12:10;0.50;;;0.40;;
16775;SDS011;8505;49.456;8.164;2024-03-08T01:14:37;0.03;;;0.03;;
16775;SDS011;8505;49.456;8.164;2024-03-08T01:17:07;0.52;;;0.52;;
16775;SDS011;8505;49.456;8.164;2024-03-08T01:19:35;0.80;;;0.70;;
16775;SDS011;8505;49.456;8.164;2024-03-08T01:22:03;0.20;;;0.20;;
16775;SDS011;8505;49.456;8.164;2024-03-08T01:24:31;0.25;;;0.25;;
16775;SDS011;8505;49.456;8.164;2024-03-08T01:26:59;0.50;;;0.40;;
16775;SDS011;8505;49.456;8.164;2024-03-08T01:29:26;2.53;;;1.55;;
16775;SDS011;8505;49.456;8.164;2024-03-08T01:31:55;0.65;;;0.65;;
16775;SDS011;8505;49.456;8.164;2024-03-08T01:34:24;2.17;;;1.77;;
16775;SDS011;8505;49.456;8.164;2024-03-08T01:36:54;0.08;;;0.08;;
16775;SDS011;8505;49.456;8.164;2024-03-08T01:39:22;2.63;;;0.77;;
16775;SDS011;8505;49.456;8.164;2024-03-08T01:41:50;0.40;;;0.40;;
16775;SDS011;8505;49.456;8.164;2024-03-08T01:44:18;0.13;;;0.13;;
16775;SDS011;8505;49.456;8.164;2024-03-08T01:46:46;1.30;;;0.70;;
16775;SDS011;8505;49.456;8.164;2024-03-08T01:49:18;0.00;;;0.00;;
16775;SDS011;8505;49.456;8.164;2024-03-08T01:51:49;0.30;;;0.30;;
16775;SDS011;8505;49.456;8.164;2024-03-08T01:54:18;2.15;;;1.10;;
16775;SDS011;8505;49.456;8.164;2024-03-08T01:56:46;1.20;;;1.17;;
16775;SDS011;8505;49.456;8.164;2024-03-08T01:59:15;0.00;;;0.00;;
16775;SDS011;8505;49.456;8.164;2024-03-08T02:01:43;0.68;;;0.45;;
16775;SDS011;8505;49.456;8.164;2024-03-08T02:04:11;0.10;;;0.10;;
16775;SDS011;8505;49.456;8.164;2024-03-08T02:06:39;0.70;;;0.70;;
16775;SDS011;8505;49.456;8.164;2024-03-08T02:09:07;0.32;;;0.32;;
16775;SDS011;8505;49.456;8.164;2024-03-08T02:11:36;1.85;;;1.20;;
16775;SDS011;8505;49.456;8.164;2024-03-08T02:14:04;0.90;;;0.90;;
16775;SDS011;8505;49.456;8.164;2024-03-08T02:16:33;0.65;;;0.65;;
16775;SDS011;8505;49.456;8.164;2024-03-08T02:19:00;0.40;;;0.40;;
16775;SDS011;8505;49.456;8.164;2024-03-08T02:21:29;0.50;;;0.50;;
16775;SDS011;8505;49.456;8.164;2024-03-08T02:23:57;0.10;;;0.10;;
16775;SDS011;8505;49.456;8.164;2024-03-08T02:26:26;0.85;;;0.70;;
16775;SDS011;8505;49.456;8.164;2024-03-08T02:28:53;1.10;;;0.40;;
16775;SDS011;8505;49.456;8.164;2024-03-08T02:31:21;0.80;;;0.80;;
16775;SDS011;8505;49.456;8.164;2024-03-08T02:33:49;0.10;;;0.10;;
16775;SDS011;8505;49.456;8.164;2024-03-08T02:36:17;0.32;;;0.32;;
16775;SDS011;8505;49.456;8.164;2024-03-08T02:38:46;0.25;;;0.25;;
16775;SDS011;8505;49.456;8.164;2024-03-08T02:41:14;0.75;;;0.55;;
16775;SDS011;8505;49.456;8.164;2024-03-08T02:43:42;0.40;;;0.40;;
16775;SDS011;8505;49.456;8.164;2024-03-08T02:46:11;0.20;;;0.20;;
16775;SDS011;8505;49.456;8.164;2024-03-08T02:48:39;1.40;;;1.00;;
16775;SDS011;8505;49.456;8.164;2024-03-08T02:51:07;0.45;;;0.40;;
16775;SDS011;8505;49.456;8.164;2024-03-08T02:53:37;0.30;;;0.20;;
16775;SDS011;8505;49.456;8.164;2024-03-08T02:56:06;4.60;;;1.47;;
16775;SDS011;8505;49.456;8.164;2024-03-08T02:58:37;2.75;;;0.85;;
16775;SDS011;8505;49.456;8.164;2024-03-08T03:01:04;0.10;;;0.10;;
16775;SDS011;8505;49.456;8.164;2024-03-08T03:03:32;0.25;;;0.22;;
16775;SDS011;8505;49.456;8.164;2024-03-08T03:06:00;3.10;;;1.85;;
16775;SDS011;8505;49.456;8.164;2024-03-08T03:08:28;1.05;;;0.98;;
16775;SDS011;8505;49.456;8.164;2024-03-08T03:10:55;0.20;;;0.20;;
16775;SDS011;8505;49.456;8.164;2024-03-08T03:13:25;0.90;;;0.80;;
16775;SDS011;8505;49.456;8.164;2024-03-08T03:15:52;0.10;;;0.10;;
16775;SDS011;8505;49.456;8.164;2024-03-08T03:18:20;0.68;;;0.57;;
16775;SDS011;8505;49.456;8.164;2024-03-08T03:20:50;2.03;;;1.53;;
16775;SDS011;8505;49.456;8.164;2024-03-08T03:23:18;0.27;;;0.27;;
16775;SDS011;8505;49.456;8.164;2024-03-08T03:25:47;0.83;;;0.83;;
16775;SDS011;8505;49.456;8.164;2024-03-08T03:28:14;0.82;;;0.73;;
16775;SDS011;8505;49.456;8.164;2024-03-08T03:30:46;1.80;;;1.20;;
16775;SDS011;8505;49.456;8.164;2024-03-08T03:33:13;0.25;;;0.25;;
16775;SDS011;8505;49.456;8.164;2024-03-08T03:35:43;1.45;;;0.45;;
16775;SDS011;8505;49.456;8.164;2024-03-08T03:38:11;0.22;;;0.22;;
16775;SDS011;8505;49.456;8.164;2024-03-08T03:40:41;1.00;;;1.00;;
16775;SDS011;8505;49.456;8.164;2024-03-08T03:43:08;0.30;;;0.30;;
16775;SDS011;8505;49.456;8.164;2024-03-08T03:45:38;1.30;;;1.20;;
16775;SDS011;8505;49.456;8.164;2024-03-08T03:48:09;0.00;;;0.00;;
16775;SDS011;8505;49.456;8.164;2024-03-08T03:50:38;0.35;;;0.35;;
16775;SDS011;8505;49.456;8.164;2024-03-08T03:53:07;0.00;;;0.00;;
16775;SDS011;8505;49.456;8.164;2024-03-08T03:55:37;0.10;;;0.10;;
16775;SDS011;8505;49.456;8.164;2024-03-08T03:58:07;1.20;;;1.10;;
16775;SDS011;8505;49.456;8.164;2024-03-08T04:00:36;0.20;;;0.20;;
16775;SDS011;8505;49.456;8.164;2024-03-08T04:03:04;0.30;;;0.30;;
16775;SDS011;8505;49.456;8.164;2024-03-08T04:05:34;0.45;;;0.45;;
16775;SDS011;8505;49.456;8.164;2024-03-08T04:08:02;0.00;;;0.00;;
16775;SDS011;8505;49.456;8.164;2024-03-08T04:10:30;0.80;;;0.80;;
16775;SDS011;8505;49.456;8.164;2024-03-08T04:12:58;0.20;;;0.20;;
16775;SDS011;8505;49.456;8.164;2024-03-08T04:15:25;0.20;;;0.20;;
16775;SDS011;8505;49.456;8.164;2024-03-08T04:17:53;1.33;;;1.20;;
16775;SDS011;8505;49.456;8.164;2024-03-08T04:20:21;0.47;;;0.32;;
16775;SDS011;8505;49.456;8.164;2024-03-08T04:22:50;0.30;;;0.30;;
16775;SDS011;8505;49.456;8.164;2024-03-08T04:25:18;0.00;;;0.00;;
16775;SDS011;8505;49.456;8.164;2024-03-08T04:27:46;0.20;;;0.13;;
16775;SDS011;8505;49.456;8.164;2024-03-08T04:30:15;0.28;;;0.28;;
16775;SDS011;8505;49.456;8.164;2024-03-08T04:32:44;0.38;;;0.38;;
16775;SDS011;8505;49.456;8.164;2024-03-08T04:35:11;1.40;;;1.30;;
16775;SDS011;8505;49.456;8.164;2024-03-08T04:37:41;0.00;;;0.00;;
16775;SDS011;8505;49.456;8.164;2024-03-08T04:40:10;0.20;;;0.20;;
16775;SDS011;8505;49.456;8.164;2024-03-08T04:42:38;5.20;;;1.50;;
16775;SDS011;8505;49.456;8.164;2024-03-08T04:45:09;0.40;;;0.40;;
16775;SDS011;8505;49.456;8.164;2024-03-08T04:47:38;0.65;;;0.65;;
16775;SDS011;8505;49.456;8.164;2024-03-08T04:50:07;0.10;;;0.10;;
16775;SDS011;8505;49.456;8.164;2024-03-08T04:52:36;0.30;;;0.30;;
16775;SDS011;8505;49.456;8.164;2024-03-08T04:55:04;0.40;;;0.40;;
16775;SDS011;8505;49.456;8.164;2024-03-08T04:57:34;0.90;;;0.90;;
16775;SDS011;8505;49.456;8.164;2024-03-08T05:00:02;0.15;;;0.15;;
16775;SDS011;8505;49.456;8.164;2024-03-08T05:02:37;0.45;;;0.45;;
16775;SDS011;8505;49.456;8.164;2024-03-08T05:05:05;0.10;;;0.10;;
16775;SDS011;8505;49.456;8.164;2024-03-08T05:07:33;0.45;;;0.45;;
16775;SDS011;8505;49.456;8.164;2024-03-08T05:10:01;0.80;;;0.80;;
16775;SDS011;8505;49.456;8.164;2024-03-08T05:12:29;0.20;;;0.20;;
16775;SDS011;8505;49.456;8.164;2024-03-08T05:14:59;2.20;;;2.00;;
16775;SDS011;8505;49.456;8.164;2024-03-08T05:17:26;0.10;;;0.10;;
16775;SDS011;8505;49.456;8.164;2024-03-08T05:19:54;6.10;;;1.90;;
16775;SDS011;8505;49.456;8.164;2024-03-08T05:22:22;0.10;;;0.10;;
16775;SDS011;8505;49.456;8.164;2024-03-08T05:24:50;1.00;;;1.00;;
16775;SDS011;8505;49.456;8.164;2024-03-08T05:27:18;1.33;;;1.02;;
16775;SDS011;8505;49.456;8.164;2024-03-08T05:29:46;0.30;;;0.30;;
16775;SDS011;8505;49.456;8.164;2024-03-08T05:32:15;0.10;;;0.10;;
16775;SDS011;8505;49.456;8.164;2024-03-08T05:34:43;0.10;;;0.10;;
16775;SDS011;8505;49.456;8.164;2024-03-08T05:37:11;3.20;;;1.40;;
16775;SDS011;8505;49.456;8.164;2024-03-08T05:39:39;0.43;;;0.43;;
16775;SDS011;8505;49.456;8.164;2024-03-08T05:42:08;0.10;;;0.10;;
16775;SDS011;8505;49.456;8.164;2024-03-08T05:44:36;0.22;;;0.13;;
16775;SDS011;8505;49.456;8.164;2024-03-08T05:47:04;0.10;;;0.10;;
16775;SDS011;8505;49.456;8.164;2024-03-08T05:49:34;2.80;;;1.00;;
16775;SDS011;8505;49.456;8.164;2024-03-08T05:52:02;0.00;;;0.00;;
16775;SDS011;8505;49.456;8.164;2024-03-08T05:54:30;0.00;;;0.00;;
16775;SDS011;8505;49.456;8.164;2024-03-08T05:56:59;0.30;;;0.30;;
16775;SDS011;8505;49.456;8.164;2024-03-08T05:59:27;0.00;;;0.00;;
16775;SDS011;8505;49.456;8.164;2024-03-08T06:01:55;0.10;;;0.10;;
16775;SDS011;8505;49.456;8.164;2024-03-08T06:04:22;0.40;;;0.40;;
16775;SDS011;8505;49.456;8.164;2024-03-08T06:06:52;0.10;;;0.10;;
16775;SDS011;8505;49.456;8.164;2024-03-08T06:09:22;0.10;;;0.10;;
16775;SDS011;8505;49.456;8.164;2024-03-08T06:11:51;0.20;;;0.20;;
16775;SDS011;8505;49.456;8.164;2024-03-08T06:14:21;0.10;;;0.10;;
16775;SDS011;8505;49.456;8.164;2024-03-08T06:16:49;0.73;;;0.73;;
16775;SDS011;8505;49.456;8.164;2024-03-08T06:19:17;0.40;;;0.40;;
16775;SDS011;8505;49.456;8.164;2024-03-08T06:21:45;0.65;;;0.65;;
16775;SDS011;8505;49.456;8.164;2024-03-08T06:24:14;0.70;;;0.70;;
16775;SDS011;8505;49.456;8.164;2024-03-08T06:26:42;0.55;;;0.47;;
16775;SDS011;8505;49.456;8.164;2024-03-08T06:29:10;1.60;;;1.37;;
16775;SDS011;8505;49.456;8.164;2024-03-08T06:31:39;0.10;;;0.10;;
16775;SDS011;8505;49.456;8.164;2024-03-08T06:34:07;0.77;;;0.77;;
16775;SDS011;8505;49.456;8.164;2024-03-08T06:36:35;0.10;;;0.10;;
16775;SDS011;8505;49.456;8.164;2024-03-08T06:39:04;0.30;;;0.30;;
16775;SDS011;8505;49.456;8.164;2024-03-08T06:41:37;3.65;;;2.75;;
16775;SDS011;8505;49.456;8.164;2024-03-08T06:44:05;0.20;;;0.20;;
16775;SDS011;8505;49.456;8.164;2024-03-08T06:46:35;1.50;;;1.05;;
16775;SDS011;8505;49.456;8.164;2024-03-08T06:49:02;8.77;;;4.17;;
16775;SDS011;8505;49.456;8.164;2024-03-08T06:51:30;11.17;;;2.47;;
16775;SDS011;8505;49.456;8.164;2024-03-08T06:53:58;0.93;;;0.87;;
16775;SDS011;8505;49.456;8.164;2024-03-08T06:56:26;4.70;;;2.35;;
16775;SDS011;8505;49.456;8.164;2024-03-08T06:58:55;1.50;;;1.02;;
16775;SDS011;8505;49.456;8.164;2024-03-08T07:01:23;0.28;;;0.28;;
16775;SDS011;8505;49.456;8.164;2024-03-08T07:03:51;0.45;;;0.45;;
16775;SDS011;8505;49.456;8.164;2024-03-08T07:06:19;2.33;;;1.48;;
16775;SDS011;8505;49.456;8.164;2024-03-08T07:08:47;4.18;;;1.50;;
16775;SDS011;8505;49.456;8.164;2024-03-08T07:11:15;0.68;;;0.68;;
16775;SDS011;8505;49.456;8.164;2024-03-08T07:13:44;0.40;;;0.40;;
16775;SDS011;8505;49.456;8.164;2024-03-08T07:16:14;2.90;;;1.30;;
16775;SDS011;8505;49.456;8.164;2024-03-08T07:18:42;0.75;;;0.63;;
16775;SDS011;8505;49.456;8.164;2024-03-08T07:21:10;0.90;;;0.60;;
16775;SDS011;8505;49.456;8.164;2024-03-08T07:23:38;0.70;;;0.60;;
16775;SDS011;8505;49.456;8.164;2024-03-08T07:26:30;4.20;;;1.00;;
16775;SDS011;8505;49.456;8.164;2024-03-08T07:28:58;2.35;;;0.35;;
16775;SDS011;8505;49.456;8.164;2024-03-08T07:31:28;0.20;;;0.20;;
16775;SDS011;8505;49.456;8.164;2024-03-08T07:34:10;10.30;;;2.03;;
16775;SDS011;8505;49.456;8.164;2024-03-08T07:36:38;3.80;;;1.25;;
16775;SDS011;8505;49.456;8.164;2024-03-08T07:39:06;0.80;;;0.63;;
16775;SDS011;8505;49.456;8.164;2024-03-08T07:41:38;1.80;;;1.02;;
16775;SDS011;8505;49.456;8.164;2024-03-08T07:44:07;1.40;;;0.73;;
16775;SDS011;8505;49.456;8.164;2024-03-08T07:46:36;1.13;;;0.90;;
16775;SDS011;8505;49.456;8.164;2024-03-08T07:49:04;3.45;;;2.22;;
16775;SDS011;8505;49.456;8.164;2024-03-08T07:51:36;3.40;;;1.75;;
16775;SDS011;8505;49.456;8.164;2024-03-08T07:54:04;10.63;;;3.72;;
16775;SDS011;8505;49.456;8.164;2024-03-08T07:56:32;7.93;;;2.80;;
16775;SDS011;8505;49.456;8.164;2024-03-08T07:59:01;13.90;;;5.05;;
16775;SDS011;8505;49.456;8.164;2024-03-08T08:01:30;6.40;;;3.05;;
16775;SDS011;8505;49.456;8.164;2024-03-08T08:04:01;9.15;;;4.15;;
16775;SDS011;8505;49.456;8.164;2024-03-08T08:06:28;16.08;;;6.65;;
16775;SDS011;8505;49.456;8.164;2024-03-08T08:08:58;12.70;;;5.25;;
16775;SDS011;8505;49.456;8.164;2024-03-08T08:11:26;18.75;;;6.25;;
16775;SDS011;8505;49.456;8.164;2024-03-08T08:13:55;9.82;;;4.95;;
16775;SDS011;8505;49.456;8.164;2024-03-08T08:16:22;10.95;;;5.70;;
16775;SDS011;8505;49.456;8.164;2024-03-08T08:18:52;12.13;;;3.78;;
16775;SDS011;8505;49.456;8.164;2024-03-08T08:21:22;9.23;;;4.17;;
16775;SDS011;8505;49.456;8.164;2024-03-08T08:23:51;3.03;;;1.67;;
16775;SDS011;8505;49.456;8.164;2024-03-08T08:26:18;7.85;;;3.72;;
16775;SDS011;8505;49.456;8.164;2024-03-08T08:28:47;5.30;;;3.10;;
16775;SDS011;8505;49.456;8.164;2024-03-08T08:31:15;5.78;;;2.35;;
16775;SDS011;8505;49.456;8.164;2024-03-08T08:33:43;6.30;;;1.98;;
16775;SDS011;8505;49.456;8.164;2024-03-08T08:36:13;6.18;;;3.38;;
16775;SDS011;8505;49.456;8.164;2024-03-08T08:38:42;8.88;;;5.50;;
16775;SDS011;8505;49.456;8.164;2024-03-08T08:41:12;8.05;;;4.20;;
16775;SDS011;8505;49.456;8.164;2024-03-08T08:43:40;4.37;;;2.40;;
16775;SDS011;8505;49.456;8.164;2024-03-08T08:46:24;16.30;;;6.40;;
16775;SDS011;8505;49.456;8.164;2024-03-08T08:48:52;11.98;;;5.22;;
16775;SDS011;8505;49.456;8.164;2024-03-08T08:51:20;7.35;;;3.17;;
16775;SDS011;8505;49.456;8.164;2024-03-08T08:53:50;12.10;;;4.97;;
16775;SDS011;8505;49.456;8.164;2024-03-08T08:56:18;11.05;;;4.47;;
16775;SDS011;8505;49.456;8.164;2024-03-08T08:58:46;11.70;;;5.18;;
16775;SDS011;8505;49.456;8.164;2024-03-08T09:01:14;4.82;;;1.55;;
16775;SDS011;8505;49.456;8.164;2024-03-08T09:03:45;6.78;;;3.63;;
16775;SDS011;8505;49.456;8.164;2024-03-08T09:06:13;12.18;;;5.55;;
16775;SDS011;8505;49.456;8.164;2024-03-08T09:08:41;9.05;;;3.38;;
16775;SDS011;8505;49.456;8.164;2024-03-08T09:11:11;1.00;;;0.60;;
16775;SDS011;8505;49.456;8.164;2024-03-08T09:13:39;11.63;;;4.38;;
16775;SDS011;8505;49.456;8.164;2024-03-08T09:16:07;6.85;;;2.92;;
16775;SDS011;8505;49.456;8.164;2024-03-08T09:18:36;2.50;;;1.10;;
16775;SDS011;8505;49.456;8.164;2024-03-08T09:21:04;11.80;;;3.80;;
16775;SDS011;8505;49.456;8.164;2024-03-08T09:23:35;6.75;;;3.20;;
16775;SDS011;8505;49.456;8.164;2024-03-08T09:26:04;11.98;;;5.13;;
16775;SDS011;8505;49.456;8.164;2024-03-08T09:28:42;7.20;;;3.72;;
16775;SDS011;8505;49.456;8.164;2024-03-08T09:31:10;9.00;;;4.43;;
16775;SDS011;8505;49.456;8.164;2024-03-08T09:33:37;9.10;;;3.90;;
16775;SDS011;8505;49.456;8.164;2024-03-08T09:36:05;7.68;;;3.28;;
16775;SDS011;8505;49.456;8.164;2024-03-08T09:38:34;19.48;;;6.95;;
16775;SDS011;8505;49.456;8.164;2024-03-08T09:41:02;4.43;;;2.20;;
16775;SDS011;8505;49.456;8.164;2024-03-08T09:43:31;4.50;;;2.17;;
16775;SDS011;8505;49.456;8.164;2024-03-08T09:46:01;8.73;;;2.72;;
16775;SDS011;8505;49.456;8.164;2024-03-08T09:48:32;3.92;;;2.53;;
16775;SDS011;8505;49.456;8.164;2024-03-08T09:51:00;7.97;;;4.32;;
16775;SDS011;8505;49.456;8.164;2024-03-08T09:53:28;5.43;;;2.83;;
16775;SDS011;8505;49.456;8.164;2024-03-08T09:55:57;9.73;;;5.15;;
16775;SDS011;8505;49.456;8.164;2024-03-08T09:58:25;5.68;;;2.75;;
16775;SDS011;8505;49.456;8.164;2024-03-08T10:01:06;3.45;;;1.85;;
16775;SDS011;8505;49.456;8.164;2024-03-08T10:03:34;4.57;;;1.95;;
16775;SDS011;8505;49.456;8.164;2024-03-08T10:06:03;8.75;;;3.85;;
16775;SDS011;8505;49.456;8.164;2024-03-08T10:08:32;5.75;;;3.35;;
16775;SDS011;8505;49.456;8.164;2024-03-08T10:11:00;14.57;;;4.95;;
16775;SDS011;8505;49.456;8.164;2024-03-08T10:13:28;6.63;;;3.43;;
16775;SDS011;8505;49.456;8.164;2024-03-08T10:15:56;3.20;;;1.80;;
16775;SDS011;8505;49.456;8.164;2024-03-08T10:18:26;7.32;;;3.75;;
16775;SDS011;8505;49.456;8.164;2024-03-08T10:21:01;3.67;;;1.52;;
16775;SDS011;8505;49.456;8.164;2024-03-08T10:23:31;8.48;;;2.22;;
16775;SDS011;8505;49.456;8.164;2024-03-08T10:26:09;0.93;;;0.93;;
16775;SDS011;8505;49.456;8.164;2024-03-08T10:28:41;5.80;;;3.17;;
16775;SDS011;8505;49.456;8.164;2024-03-08T10:31:09;8.70;;;4.27;;
16775;SDS011;8505;49.456;8.164;2024-03-08T10:33:38;2.63;;;2.10;;
16775;SDS011;8505;49.456;8.164;2024-03-08T10:36:07;3.78;;;2.17;;
16775;SDS011;8505;49.456;8.164;2024-03-08T10:38:38;10.35;;;4.25;;
16775;SDS011;8505;49.456;8.164;2024-03-08T10:41:07;0.30;;;0.30;;
16775;SDS011;8505;49.456;8.164;2024-03-08T10:43:40;7.72;;;3.35;;
16775;SDS011;8505;49.456;8.164;2024-03-08T10:46:35;5.47;;;2.72;;
16775;SDS011;8505;49.456;8.164;2024-03-08T10:49:16;5.13;;;1.60;;
16775;SDS011;8505;49.456;8.164;2024-03-08T10:51:46;6.18;;;2.63;;
16775;SDS011;8505;49.456;8.164;2024-03-08T10:54:18;3.25;;;1.92;;
16775;SDS011;8505;49.456;8.164;2024-03-08T10:56:47;6.47;;;3.08;;
16775;SDS011;8505;49.456;8.164;2024-03-08T10:59:16;8.23;;;3.38;;
16775;SDS011;8505;49.456;8.164;2024-03-08T11:01:45;5.85;;;3.28;;
16775;SDS011;8505;49.456;8.164;2024-03-08T11:04:15;7.70;;;2.85;;
16775;SDS011;8505;49.456;8.164;2024-03-08T11:06:46;13.15;;;4.75;;
16775;SDS011;8505;49.456;8.164;2024-03-08T11:09:29;7.25;;;4.18;;
16775;SDS011;8505;49.456;8.164;2024-03-08T11:14:48;10.55;;;4.57;;
16775;SDS011;8505;49.456;8.164;2024-03-08T11:17:20;3.22;;;2.45;;
16775;SDS011;8505;49.456;8.164;2024-03-08T11:19:50;7.90;;;3.08;;
16775;SDS011;8505;49.456;8.164;2024-03-08T11:22:22;8.80;;;4.03;;
16775;SDS011;8505;49.456;8.164;2024-03-08T11:24:53;6.55;;;2.97;;
16775;SDS011;8505;49.456;8.164;2024-03-08T11:27:21;4.13;;;1.70;;
16775;SDS011;8505;49.456;8.164;2024-03-08T11:29:59;4.93;;;2.75;;
16775;SDS011;8505;49.456;8.164;2024-03-08T11:32:44;2.70;;;1.30;;
16775;SDS011;8505;49.456;8.164;2024-03-08T11:35:19;2.38;;;0.90;;
16775;SDS011;8505;49.456;8.164;2024-03-08T11:37:49;4.03;;;2.33;;
16775;SDS011;8505;49.456;8.164;2024-03-08T11:40:17;4.18;;;2.28;;
16775;SDS011;8505;49.456;8.164;2024-03-08T11:42:47;7.50;;;3.38;;
16775;SDS011;8505;49.456;8.164;2024-03-08T11:45:18;9.68;;;4.32;;
16775;SDS011;8505;49.456;8.164;2024-03-08T11:47:47;3.15;;;2.33;;
16775;SDS011;8505;49.456;8.164;2024-03-08T11:50:18;8.20;;;4.30;;
16775;SDS011;8505;49.456;8.164;2024-03-08T11:52:47;9.77;;;4.50;;
16775;SDS011;8505;49.456;8.164;2024-03-08T11:55:15;10.43;;;4.00;;
16775;SDS011;8505;49.456;8.164;2024-03-08T11:57:46;8.65;;;3.88;;
16775;SDS011;8505;49.456;8.164;2024-03-08T12:00:15;2.45;;;1.77;;
16775;SDS011;8505;49.456;8.164;2024-03-08T12:03:00;2.35;;;1.60;;
16775;SDS011;8505;49.456;8.164;2024-03-08T12:05:30;5.25;;;2.92;;
16775;SDS011;8505;49.456;8.164;2024-03-08T12:07:59;1.90;;;1.13;;
16775;SDS011;8505;49.456;8.164;2024-03-08T12:10:28;4.97;;;3.03;;
16775;SDS011;8505;49.456;8.164;2024-03-08T12:12:57;10.40;;;5.35;;
16775;SDS011;8505;49.456;8.164;2024-03-08T12:15:28;6.10;;;3.22;;
16775;SDS011;8505;49.456;8.164;2024-03-08T12:17:59;10.45;;;4.45;;
16775;SDS011;8505;49.456;8.164;2024-03-08T12:20:28;8.23;;;3.90;;
16775;SDS011;8505;49.456;8.164;2024-03-08T12:22:58;10.73;;;2.43;;
16775;SDS011;8505;49.456;8.164;2024-03-08T12:28:06;8.63;;;4.27;;
16775;SDS011;8505;49.456;8.164;2024-03-08T12:30:37;3.45;;;1.45;;
16775;SDS011;8505;49.456;8.164;2024-03-08T12:33:13;8.82;;;4.28;;
16775;SDS011;8505;49.456;8.164;2024-03-08T12:35:49;5.30;;;1.80;;
16775;SDS011;8505;49.456;8.164;2024-03-08T12:38:21;0.38;;;0.28;;
16775;SDS011;8505;49.456;8.164;2024-03-08T12:40:54;6.22;;;2.40;;
16775;SDS011;8505;49.456;8.164;2024-03-08T12:43:24;2.90;;;1.20;;
16775;SDS011;8505;49.456;8.164;2024-03-08T12:45:51;4.53;;;2.05;;
16775;SDS011;8505;49.456;8.164;2024-03-08T12:48:20;10.02;;;4.72;;
16775;SDS011;8505;49.456;8.164;2024-03-08T12:50:49;5.70;;;2.90;;
16775;SDS011;8505;49.456;8.164;2024-03-08T12:53:18;3.67;;;2.40;;
16775;SDS011;8505;49.456;8.164;2024-03-08T12:55:46;7.03;;;2.20;;
16775;SDS011;8505;49.456;8.164;2024-03-08T12:58:13;4.00;;;2.07;;
16775;SDS011;8505;49.456;8.164;2024-03-08T13:00:43;8.18;;;4.18;;
16775;SDS011;8505;49.456;8.164;2024-03-08T13:03:11;6.05;;;3.60;;
16775;SDS011;8505;49.456;8.164;2024-03-08T13:05:39;2.90;;;1.52;;
16775;SDS011;8505;49.456;8.164;2024-03-08T13:08:10;0.95;;;0.75;;
16775;SDS011;8505;49.456;8.164;2024-03-08T13:10:39;2.00;;;1.30;;
16775;SDS011;8505;49.456;8.164;2024-03-08T13:13:10;10.55;;;2.65;;
16775;SDS011;8505;49.456;8.164;2024-03-08T13:15:40;7.95;;;4.82;;
16775;SDS011;8505;49.456;8.164;2024-03-08T13:18:08;2.65;;;2.10;;
16775;SDS011;8505;49.456;8.164;2024-03-08T13:20:36;7.10;;;2.53;;
16775;SDS011;8505;49.456;8.164;2024-03-08T13:23:14;14.00;;;4.40;;
16775;SDS011;8505;49.456;8.164;2024-03-08T13:25:43;5.40;;;3.10;;
16775;SDS011;8505;49.456;8.164;2024-03-08T13:28:14;3.58;;;1.88;;
16775;SDS011;8505;49.456;8.164;2024-03-08T13:30:42;8.10;;;3.55;;
16775;SDS011;8505;49.456;8.164;2024-03-08T13:33:10;6.60;;;2.78;;
16775;SDS011;8505;49.456;8.164;2024-03-08T13:35:39;9.50;;;3.40;;
16775;SDS011;8505;49.456;8.164;2024-03-08T13:38:07;6.22;;;2.63;;
16775;SDS011;8505;49.456;8.164;2024-03-08T13:40:39;24.30;;;14.40;;
16775;SDS011;8505;49.456;8.164;2024-03-08T13:43:07;27.73;;;15.15;;
16775;SDS011;8505;49.456;8.164;2024-03-08T13:45:35;25.05;;;14.68;;
16775;SDS011;8505;49.456;8.164;2024-03-08T13:48:05;26.10;;;15.43;;
16775;SDS011;8505;49.456;8.164;2024-03-08T13:50:33;24.17;;;14.32;;
16775;SDS011;8505;49.456;8.164;2024-03-08T13:53:01;25.00;;;15.45;;
16775;SDS011;8505;49.456;8.164;2024-03-08T13:55:30;25.20;;;15.15;;
16775;SDS011;8505;49.456;8.164;2024-03-08T13:58:01;24.48;;;15.20;;
16775;SDS011;8505;49.456;8.164;2024-03-08T14:00:29;26.15;;;15.05;;
16775;SDS011;8505;49.456;8.164;2024-03-08T14:03:00;24.70;;;14.65;;
16775;SDS011;8505;49.456;8.164;2024-03-08T14:05:31;25.70;;;14.82;;
16775;SDS011;8505;49.456;8.164;2024-03-08T14:08:01;24.98;;;15.90;;
16775;SDS011;8505;49.456;8.164;2024-03-08T14:10:30;27.55;;;14.82;;
16775;SDS011;8505;49.456;8.164;2024-03-08T14:12:58;26.35;;;15.27;;
16775;SDS011;8505;49.456;8.164;2024-03-08T14:15:27;26.52;;;15.20;;
16775;SDS011;8505;49.456;8.164;2024-03-08T14:17:55;26.30;;;14.73;;
16775;SDS011;8505;49.456;8.164;2024-03-08T14:20:23;27.88;;;15.23;;
16775;SDS011;8505;49.456;8.164;2024-03-08T14:22:52;23.98;;;14.60;;
16775;SDS011;8505;49.456;8.164;2024-03-08T14:25:21;24.50;;;14.23;;
16775;SDS011;8505;49.456;8.164;2024-03-08T14:27:50;25.08;;;14.45;;
16775;SDS011;8505;49.456;8.164;2024-03-08T14:30:20;26.05;;;14.93;;
16775;SDS011;8505;49.456;8.164;2024-03-08T14:33:02;6.93;;;3.20;;
16775;SDS011;8505;49.456;8.164;2024-03-08T14:35:32;4.57;;;1.95;;
16775;SDS011;8505;49.456;8.164;2024-03-08T14:38:00;25.48;;;13.52;;
16775;SDS011;8505;49.456;8.164;2024-03-08T14:40:28;26.25;;;15.23;;
16775;SDS011;8505;49.456;8.164;2024-03-08T14:42:56;26.70;;;15.10;;
16775;SDS011;8505;49.456;8.164;2024-03-08T14:45:24;26.00;;;14.95;;
16775;SDS011;8505;49.456;8.164;2024-03-08T14:47:52;26.88;;;15.38;;
16775;SDS011;8505;49.456;8.164;2024-03-08T14:50:23;25.83;;;15.10;;
16775;SDS011;8505;49.456;8.164;2024-03-08T14:52:52;26.33;;;14.65;;
16775;SDS011;8505;49.456;8.164;2024-03-08T14:55:20;24.70;;;14.57;;
16775;SDS011;8505;49.456;8.164;2024-03-08T14:57:49;25.88;;;15.02;;
16775;SDS011;8505;49.456;8.164;2024-03-08T15:00:18;26.00;;;14.93;;
16775;SDS011;8505;49.456;8.164;2024-03-08T15:02:53;27.17;;;14.77;;
16775;SDS011;8505;49.456;8.164;2024-03-08T15:05:22;25.38;;;13.93;;
16775;SDS011;8505;49.456;8.164;2024-03-08T15:07:53;24.38;;;14.52;;
16775;SDS011;8505;49.456;8.164;2024-03-08T15:10:21;25.67;;;14.32;;
16775;SDS011;8505;49.456;8.164;2024-03-08T15:12:52;26.55;;;14.88;;
16775;SDS011;8505;49.456;8.164;2024-03-08T15:15:22;24.95;;;14.05;;